createdAt,value
2019-05-12T00:01:28.735Z,10.50
2019-05-12T00:03:58.544Z,9.30
2019-05-12T00:06:29.040Z,7.53
2019-05-12T00:08:58.601Z,11.85
2019-05-12T00:11:28.721Z,10.63
2019-05-12T00:13:58.829Z,12.53
2019-05-12T00:16:28.559Z,14.75
2019-05-12T00:18:58.714Z,12.93
2019-05-12T00:21:28.577Z,12.18
2019-05-12T00:24:12.783Z,12.45
2019-05-12T00:26:43.405Z,12.63
2019-05-12T00:29:13.198Z,14.80
2019-05-12T00:31:43.014Z,15.10
2019-05-12T00:34:12.685Z,14.65
2019-05-12T00:36:42.470Z,12.00
2019-05-12T00:39:12.209Z,16.25
2019-05-12T00:41:44.343Z,12.63
2019-05-12T00:44:13.365Z,12.30
2019-05-12T00:46:43.013Z,13.62
2019-05-12T00:49:12.704Z,7.92
2019-05-12T00:51:42.472Z,8.93
2019-05-12T00:54:12.159Z,14.03
2019-05-12T00:56:41.877Z,10.13
2019-05-12T00:59:11.534Z,13.03
2019-05-12T01:01:41.151Z,12.05
2019-05-12T01:04:10.729Z,11.53
2019-05-12T01:06:40.464Z,8.68
2019-05-12T01:09:10.411Z,11.45
2019-05-12T01:11:40.694Z,14.78
2019-05-12T01:14:10.474Z,9.68
2019-05-12T01:16:40.227Z,12.73
2019-05-12T01:19:09.815Z,12.45
2019-05-12T01:21:39.549Z,14.75
2019-05-12T01:24:09.329Z,8.38
2019-05-12T01:26:39.087Z,12.23
2019-05-12T01:29:08.866Z,16.15
2019-05-12T01:31:40.356Z,11.28
2019-05-12T01:34:09.972Z,11.78
2019-05-12T01:36:39.607Z,11.12
2019-05-12T01:39:09.456Z,13.80
2019-05-12T01:41:39.143Z,10.40
2019-05-12T01:44:09.056Z,12.60
2019-05-12T01:46:38.766Z,13.93
2019-05-12T01:49:08.567Z,13.93
2019-05-12T01:51:38.641Z,12.75
2019-05-12T01:54:13.877Z,12.37
2019-05-12T01:56:39.799Z,10.90
2019-05-12T01:59:09.428Z,13.28
2019-05-12T02:01:39.160Z,9.88
2019-05-12T02:04:08.854Z,9.78
2019-05-12T02:06:38.861Z,9.15
2019-05-12T02:09:10.909Z,9.55
2019-05-12T02:11:40.608Z,13.15
2019-05-12T02:14:10.323Z,14.05
2019-05-12T02:16:40.080Z,10.70
2019-05-12T02:19:09.789Z,12.55
2019-05-12T02:21:39.478Z,12.40
2019-05-12T02:24:23.030Z,14.53
2019-05-12T02:26:40.576Z,17.57
2019-05-12T02:29:10.419Z,16.12
2019-05-12T02:31:40.356Z,11.80
2019-05-12T02:34:10.106Z,12.18
2019-05-12T02:36:39.718Z,15.60
2019-05-12T02:39:09.424Z,15.30
2019-05-12T02:41:44.943Z,13.22
2019-05-12T02:44:15.233Z,10.38
2019-05-12T02:46:44.970Z,14.00
2019-05-12T02:49:15.589Z,13.05
2019-05-12T02:51:45.785Z,13.93
2019-05-12T02:54:16.110Z,12.20
2019-05-12T02:56:47.607Z,16.17
2019-05-12T02:59:19.418Z,16.10
2019-05-12T03:01:50.534Z,9.88
2019-05-12T03:04:20.823Z,17.27
2019-05-12T03:06:50.482Z,14.87
2019-05-12T03:09:24.141Z,15.32
2019-05-12T03:14:25.233Z,22.60
2019-05-12T03:16:55.177Z,13.43
2019-05-12T03:19:25.355Z,15.45
2019-05-12T03:21:55.155Z,10.80
2019-05-12T03:24:25.244Z,12.88
2019-05-12T03:26:56.099Z,17.87
2019-05-12T03:29:25.973Z,18.80
2019-05-12T03:31:57.382Z,20.57
2019-05-12T03:34:29.269Z,21.05
2019-05-12T03:36:59.737Z,18.35
2019-05-12T03:39:30.010Z,17.45
2019-05-12T03:42:00.152Z,20.50
2019-05-12T03:44:30.375Z,19.45
2019-05-12T03:47:00.582Z,22.13
2019-05-12T03:49:30.983Z,18.25
2019-05-12T03:52:01.194Z,24.75
2019-05-12T03:54:34.741Z,20.85
2019-05-12T03:57:04.517Z,30.17
2019-05-12T03:59:35.065Z,23.70
2019-05-12T04:02:05.346Z,20.68
2019-05-12T04:04:35.618Z,18.77
2019-05-12T04:07:05.816Z,20.57
2019-05-12T04:09:36.986Z,23.60
2019-05-12T04:12:07.093Z,29.83
2019-05-12T04:14:37.430Z,26.90
2019-05-12T04:17:07.637Z,26.80
2019-05-12T04:19:38.066Z,27.77
2019-05-12T04:22:08.384Z,18.55
2019-05-12T04:24:38.516Z,23.32
2019-05-12T04:27:08.841Z,23.73
2019-05-12T04:29:39.002Z,25.50
2019-05-12T04:32:09.364Z,23.32
2019-05-12T04:34:39.653Z,23.40
2019-05-12T04:37:09.831Z,23.55
2019-05-12T04:39:40.262Z,19.20
2019-05-12T04:42:10.634Z,24.80
2019-05-12T04:44:40.893Z,20.45
2019-05-12T04:47:14.335Z,17.92
2019-05-12T04:49:45.208Z,14.95
2019-05-12T04:52:15.671Z,17.00
2019-05-12T04:54:46.155Z,21.15
2019-05-12T04:57:20.621Z,14.45
2019-05-12T04:59:48.308Z,17.35
2019-05-12T05:02:18.729Z,15.10
2019-05-12T05:04:49.119Z,13.75
2019-05-12T05:07:19.496Z,16.65
2019-05-12T05:09:49.720Z,11.73
2019-05-12T05:12:20.069Z,12.47
2019-05-12T05:14:50.325Z,17.00
2019-05-12T05:17:20.758Z,13.28
2019-05-12T05:19:50.879Z,12.82
2019-05-12T05:22:21.143Z,14.80
2019-05-12T05:24:53.505Z,18.70
2019-05-12T05:27:24.669Z,13.95
2019-05-12T05:29:55.468Z,17.27
2019-05-12T05:32:25.629Z,13.08
2019-05-12T05:34:57.843Z,17.95
2019-05-12T05:37:30.758Z,12.35
2019-05-12T05:39:59.740Z,20.55
2019-05-12T05:42:32.905Z,13.43
2019-05-12T05:47:33.469Z,15.18
2019-05-12T05:50:04.779Z,17.02
2019-05-12T05:52:38.779Z,13.78
2019-05-12T05:55:14.885Z,14.60
2019-05-12T05:57:40.124Z,18.45
2019-05-12T06:00:17.249Z,11.43
2019-05-12T06:02:44.113Z,19.30
2019-05-12T06:05:15.135Z,14.60
2019-05-12T06:07:45.914Z,13.70
2019-05-12T06:10:16.328Z,13.90
2019-05-12T06:12:54.125Z,13.93
2019-05-12T06:15:29.815Z,12.70
2019-05-12T06:18:04.973Z,19.42
2019-05-12T06:20:40.106Z,14.87
2019-05-12T06:23:10.627Z,16.25
2019-05-12T06:25:47.470Z,11.43
2019-05-12T06:28:14.527Z,13.18
2019-05-12T06:30:49.379Z,13.50
2019-05-12T06:33:17.184Z,12.28
2019-05-12T06:35:47.461Z,14.73
2019-05-12T06:38:17.620Z,11.97
2019-05-12T06:40:47.852Z,12.18
2019-05-12T06:43:18.292Z,16.52
2019-05-12T06:45:48.593Z,12.88
2019-05-12T06:48:19.491Z,16.48
2019-05-12T06:50:50.910Z,14.43
2019-05-12T06:53:26.528Z,13.32
2019-05-12T06:55:54.007Z,13.08
2019-05-12T06:58:27.592Z,15.10
2019-05-12T07:00:56.674Z,12.98
2019-05-12T07:03:30.774Z,10.98
2019-05-12T07:05:59.210Z,13.55
2019-05-12T07:08:32.131Z,21.00
2019-05-12T07:11:05.778Z,36.53
2019-05-12T07:13:34.957Z,15.40
2019-05-12T07:16:22.075Z,12.65
2019-05-12T07:18:49.383Z,16.23
2019-05-12T07:21:22.132Z,31.77
2019-05-12T07:23:53.458Z,21.90
2019-05-12T07:26:23.687Z,25.75
2019-05-12T07:28:54.237Z,27.77
2019-05-12T07:31:24.601Z,23.05
2019-05-12T07:33:55.055Z,12.65
2019-05-12T07:36:25.961Z,7.92
2019-05-12T07:39:03.919Z,11.45
2019-05-12T07:41:34.049Z,11.70
2019-05-12T07:44:04.681Z,7.17
2019-05-12T07:46:39.789Z,10.85
2019-05-12T07:51:40.522Z,27.73
2019-05-12T07:54:07.989Z,16.20
2019-05-12T07:56:40.777Z,35.35
2019-05-12T07:59:10.077Z,30.48
2019-05-12T08:01:47.500Z,17.65
2019-05-12T08:04:13.471Z,8.83
2019-05-12T08:06:46.793Z,8.98
2019-05-12T08:09:15.910Z,9.58
2019-05-12T08:11:46.182Z,9.60
2019-05-12T08:14:25.788Z,11.55
2019-05-12T08:16:48.540Z,13.38
2019-05-12T08:19:23.764Z,9.58
2019-05-12T08:21:50.610Z,12.50
2019-05-12T08:24:20.793Z,12.13
2019-05-12T08:26:59.521Z,12.85
2019-05-12T08:29:24.233Z,7.85
2019-05-12T08:31:55.214Z,11.00
2019-05-12T08:34:25.576Z,10.32
2019-05-12T08:36:57.950Z,13.13
2019-05-12T08:39:27.851Z,8.33
2019-05-12T08:41:58.273Z,7.72
2019-05-12T08:44:33.844Z,12.10
2019-05-12T08:47:00.444Z,11.25
2019-05-12T08:49:34.095Z,15.23
2019-05-12T08:52:03.852Z,12.35
2019-05-12T08:54:34.529Z,7.28
2019-05-12T08:57:58.972Z,6.70
2019-05-12T09:00:44.560Z,11.38
2019-05-12T09:03:13.702Z,11.15
2019-05-12T09:08:14.996Z,13.40
2019-05-12T09:10:45.325Z,9.48
2019-05-12T09:13:15.493Z,8.78
2019-05-12T09:15:45.656Z,7.45
2019-05-12T09:18:18.783Z,6.70
2019-05-12T09:20:52.654Z,8.90
2019-05-12T09:23:19.847Z,8.50
2019-05-12T09:25:50.318Z,8.03
2019-05-12T09:28:20.550Z,7.60
2019-05-12T09:30:51.054Z,4.90
2019-05-12T09:33:26.705Z,4.55
2019-05-12T09:35:54.003Z,6.72
2019-05-12T09:38:26.325Z,4.67
2019-05-12T09:41:00.949Z,6.12
2019-05-12T09:43:29.112Z,8.70
2019-05-12T09:45:59.300Z,18.37
2019-05-12T09:48:29.565Z,13.93
2019-05-12T09:51:00.582Z,6.20
2019-05-12T09:53:34.141Z,9.10
2019-05-12T09:56:04.486Z,6.25
2019-05-12T09:58:35.239Z,28.62
2019-05-12T10:01:05.639Z,7.03
2019-05-12T10:03:39.932Z,35.98
2019-05-12T10:08:39.461Z,7.35
2019-05-12T10:11:10.303Z,5.15
2019-05-12T10:16:13.420Z,9.85
2019-05-12T10:18:51.201Z,5.90
2019-05-12T10:23:51.509Z,7.35
2019-05-12T10:26:19.899Z,8.70
2019-05-12T10:28:52.227Z,7.67
2019-05-12T10:31:24.263Z,7.78
2019-05-12T10:33:58.152Z,5.60
2019-05-12T10:36:27.786Z,5.55
2019-05-12T10:38:57.941Z,4.45
2019-05-12T10:41:28.103Z,8.03
2019-05-12T10:43:58.377Z,8.65
2019-05-12T10:46:28.852Z,4.53
2019-05-12T10:48:59.281Z,9.40
2019-05-12T10:51:29.396Z,6.97
2019-05-12T10:54:09.111Z,6.10
2019-05-12T10:59:04.114Z,5.53
2019-05-12T11:01:38.280Z,7.20
2019-05-12T11:04:05.243Z,7.75
2019-05-12T11:06:39.602Z,6.12
2019-05-12T11:09:08.819Z,4.72
2019-05-12T11:11:46.740Z,10.98
2019-05-12T11:14:11.611Z,6.40
2019-05-12T11:16:44.534Z,10.93
2019-05-12T11:19:14.095Z,10.45
2019-05-12T11:21:44.398Z,7.50
2019-05-12T11:24:14.879Z,6.80
2019-05-12T11:26:45.047Z,3.35
2019-05-12T11:29:15.504Z,5.70
2019-05-12T11:31:45.810Z,4.42
2019-05-12T11:34:16.177Z,5.62
2019-05-12T11:36:46.454Z,9.05
2019-05-12T11:39:16.866Z,8.80
2019-05-12T11:41:47.066Z,5.05
2019-05-12T11:44:17.583Z,6.08
2019-05-12T11:46:48.004Z,6.58
2019-05-12T11:49:21.596Z,8.05
2019-05-12T11:51:50.214Z,7.78
2019-05-12T11:54:20.574Z,25.25
2019-05-12T11:56:53.363Z,14.55
2019-05-12T12:01:56.129Z,6.75
2019-05-12T12:06:57.435Z,7.05
2019-05-12T12:09:28.023Z,10.20
2019-05-12T12:12:03.169Z,9.03
2019-05-12T12:14:31.854Z,9.78
2019-05-12T12:17:02.423Z,7.03
2019-05-12T12:19:37.294Z,19.00
2019-05-12T12:22:04.750Z,6.15
2019-05-12T12:24:37.902Z,2.65
2019-05-12T12:27:07.206Z,9.05
2019-05-12T12:29:37.441Z,6.28
2019-05-12T12:32:09.910Z,8.48
2019-05-12T12:34:39.643Z,7.00
2019-05-12T12:37:10.118Z,7.55
2019-05-12T12:39:40.635Z,4.35
2019-05-12T12:42:10.874Z,6.35
2019-05-12T12:44:40.989Z,5.87
2019-05-12T12:47:11.301Z,11.85
2019-05-12T12:49:47.575Z,8.93
2019-05-12T12:52:13.864Z,9.78
2019-05-12T12:54:44.289Z,13.72
2019-05-12T12:57:14.566Z,11.22
2019-05-12T12:59:51.026Z,5.53
2019-05-12T13:02:17.297Z,6.78
2019-05-12T13:04:50.369Z,6.20
2019-05-12T13:09:49.318Z,9.50
2019-05-12T13:12:19.889Z,8.40
2019-05-12T13:14:50.394Z,10.40
2019-05-12T13:17:20.961Z,3.45
2019-05-12T13:19:56.787Z,3.77
2019-05-12T13:22:24.530Z,4.87
2019-05-12T13:24:58.098Z,3.90
2019-05-12T13:30:01.898Z,4.10
2019-05-12T13:32:37.648Z,6.33
2019-05-12T13:35:09.751Z,4.47
2019-05-12T13:37:36.843Z,3.65
2019-05-12T13:40:10.022Z,4.37
2019-05-12T13:42:40.187Z,4.08
2019-05-12T13:45:13.954Z,10.60
2019-05-12T13:47:43.926Z,5.08
2019-05-12T13:50:21.476Z,6.92
2019-05-12T13:55:15.762Z,3.87
2019-05-12T13:57:52.285Z,4.75
2019-05-12T14:00:18.106Z,3.70
2019-05-12T14:02:49.044Z,4.12
2019-05-12T14:05:19.627Z,5.40
2019-05-12T14:07:54.927Z,6.78
2019-05-12T14:10:24.316Z,24.72
2019-05-12T14:12:54.412Z,17.67
2019-05-12T14:15:25.178Z,11.68
2019-05-12T14:17:55.711Z,6.37
2019-05-12T14:20:25.930Z,11.90
2019-05-12T14:22:56.106Z,26.00
2019-05-12T14:25:31.002Z,9.20
2019-05-12T14:27:59.424Z,7.62
2019-05-12T14:32:59.641Z,2.12
2019-05-12T14:35:32.420Z,5.17
2019-05-12T14:38:03.833Z,5.05
2019-05-12T14:40:34.881Z,10.58
2019-05-12T14:43:10.280Z,14.53
2019-05-12T14:48:09.273Z,3.62
2019-05-12T14:50:38.801Z,5.33
2019-05-12T14:53:08.829Z,16.10
2019-05-12T14:55:39.119Z,42.67
2019-05-12T14:58:14.857Z,35.23
2019-05-12T15:00:41.018Z,5.78
2019-05-12T15:03:13.839Z,11.35
2019-05-12T15:08:21.131Z,19.82
2019-05-12T15:13:17.314Z,2.55
2019-05-12T15:15:50.033Z,1.80
2019-05-12T15:20:51.428Z,2.17
2019-05-12T15:23:23.964Z,3.95
2019-05-12T15:28:24.443Z,28.57
2019-05-12T15:30:54.725Z,31.80
2019-05-12T15:33:26.637Z,23.20
2019-05-12T15:38:25.841Z,31.50
2019-05-12T15:40:56.054Z,11.35
2019-05-12T15:43:26.349Z,12.33
2019-05-12T15:45:59.429Z,2.50
2019-05-12T15:48:28.469Z,11.80
2019-05-12T15:50:59.406Z,19.05
2019-05-12T15:56:05.710Z,10.32
2019-05-12T15:58:33.563Z,12.55
2019-05-12T16:01:06.021Z,2.85
2019-05-12T16:03:36.025Z,5.65
2019-05-12T16:06:10.060Z,5.28
2019-05-12T16:08:38.146Z,2.77
2019-05-12T16:11:08.246Z,2.62
2019-05-12T16:13:38.645Z,1.42
2019-05-12T16:16:08.837Z,3.67
2019-05-12T16:18:40.578Z,4.67
2019-05-12T16:23:40.251Z,10.82
2019-05-12T16:26:12.490Z,8.33
2019-05-12T16:28:44.146Z,5.80
2019-05-12T16:31:16.102Z,6.10
2019-05-12T16:33:46.317Z,2.40
2019-05-12T16:36:16.470Z,4.80
2019-05-12T16:38:50.122Z,15.85
2019-05-12T16:43:49.731Z,4.45
2019-05-12T16:46:19.875Z,5.15
2019-05-12T16:48:54.561Z,4.03
2019-05-12T16:51:23.781Z,2.37
2019-05-12T16:53:54.704Z,3.67
2019-05-12T16:56:29.513Z,5.22
2019-05-12T16:58:57.852Z,2.65
2019-05-12T17:01:29.471Z,3.20
2019-05-12T17:04:00.066Z,5.22
2019-05-12T17:06:34.981Z,5.08
2019-05-12T17:09:03.376Z,4.37
2019-05-12T17:11:37.312Z,3.50
2019-05-12T17:14:05.444Z,2.22
2019-05-12T17:16:42.090Z,6.92
2019-05-12T17:19:10.400Z,3.55
2019-05-12T17:21:39.667Z,10.35
2019-05-12T17:24:10.031Z,4.80
2019-05-12T17:26:40.369Z,2.90
2019-05-12T17:29:10.763Z,2.85
2019-05-12T17:31:41.282Z,5.80
2019-05-12T17:34:11.592Z,6.20
2019-05-12T17:36:44.826Z,5.45
2019-05-12T17:39:18.315Z,5.50
2019-05-12T17:41:48.984Z,4.17
2019-05-12T17:44:19.361Z,6.97
2019-05-12T17:46:49.666Z,3.92
2019-05-12T17:49:29.408Z,3.72
2019-05-12T17:51:53.461Z,2.12
2019-05-12T17:54:26.469Z,0.95
2019-05-12T17:56:56.846Z,2.62
2019-05-12T17:59:29.146Z,3.53
2019-05-12T18:04:31.058Z,1.50
2019-05-12T18:09:32.565Z,4.45
2019-05-12T18:12:04.278Z,2.08
2019-05-12T18:17:08.642Z,4.70
2019-05-12T18:22:09.593Z,6.28
2019-05-12T18:24:40.944Z,5.12
2019-05-12T18:29:44.207Z,5.17
2019-05-12T18:32:14.784Z,6.30
2019-05-12T18:34:44.979Z,6.35
2019-05-12T18:37:15.387Z,7.55
2019-05-12T18:39:45.724Z,7.35
2019-05-12T18:42:16.140Z,12.00
2019-05-12T18:44:46.435Z,8.13
2019-05-12T18:47:22.372Z,7.17
2019-05-12T18:52:19.590Z,5.50
2019-05-12T18:54:52.422Z,10.25
2019-05-12T18:57:23.857Z,9.33
2019-05-12T18:59:55.118Z,5.75
2019-05-12T19:02:28.471Z,5.90
2019-05-12T19:04:57.430Z,9.23
2019-05-12T19:07:39.291Z,9.33
2019-05-12T19:09:59.915Z,10.40
2019-05-12T19:12:32.470Z,8.10
2019-05-12T19:15:04.414Z,8.70
2019-05-12T19:17:34.071Z,8.80
2019-05-12T19:20:07.728Z,6.40
2019-05-12T19:22:39.435Z,6.30
2019-05-12T19:25:14.694Z,8.43
2019-05-12T19:27:47.012Z,7.28
2019-05-12T19:30:19.594Z,5.53
2019-05-12T19:32:51.830Z,3.77
2019-05-12T19:35:23.424Z,4.78
2019-05-12T19:37:54.027Z,3.83
2019-05-12T19:40:24.360Z,4.05
2019-05-12T19:43:01.826Z,5.75
2019-05-12T19:45:25.988Z,6.05
2019-05-12T19:47:55.809Z,7.53
2019-05-12T19:50:25.551Z,6.40
2019-05-12T19:52:55.476Z,10.55
2019-05-12T19:55:26.913Z,10.32
2019-05-12T19:57:56.521Z,9.13
2019-05-12T20:00:26.416Z,11.25
2019-05-12T20:02:56.135Z,8.48
2019-05-12T20:05:25.762Z,6.15
2019-05-12T20:07:55.380Z,5.47
2019-05-12T20:10:25.112Z,7.80
2019-05-12T20:12:57.053Z,4.65
2019-05-12T20:15:30.138Z,7.03
2019-05-12T20:17:57.600Z,5.35
2019-05-12T20:20:36.709Z,5.00
2019-05-12T20:22:58.897Z,4.12
2019-05-12T20:26:23.724Z,4.95
2019-05-12T20:28:55.530Z,2.08
2019-05-12T20:31:27.305Z,6.03
2019-05-12T20:34:04.197Z,3.42
2019-05-12T20:36:28.696Z,6.35
2019-05-12T20:38:58.409Z,8.65
2019-05-12T20:41:28.409Z,10.60
2019-05-12T20:43:58.325Z,7.20
2019-05-12T20:46:27.893Z,8.43
2019-05-12T20:49:01.204Z,9.35
2019-05-12T20:51:29.306Z,7.62
2019-05-12T20:53:59.248Z,5.50
2019-05-12T20:56:29.137Z,5.50
2019-05-12T20:58:58.874Z,3.55
2019-05-12T21:01:30.252Z,5.78
2019-05-12T21:03:59.920Z,11.33
2019-05-12T21:06:33.129Z,7.12
2019-05-12T21:09:03.348Z,11.43
2019-05-12T21:11:33.824Z,14.43
2019-05-12T21:14:09.806Z,10.60
2019-05-12T21:16:38.853Z,12.45
2019-05-12T21:19:10.975Z,9.50
2019-05-12T21:21:38.660Z,10.32
2019-05-12T21:24:08.574Z,9.95
2019-05-12T21:26:38.276Z,12.23
2019-05-12T21:29:07.821Z,17.77
2019-05-12T21:31:37.853Z,12.82
2019-05-12T21:34:15.103Z,16.77
2019-05-12T21:36:38.860Z,14.85
2019-05-12T21:39:10.425Z,12.05
2019-05-12T21:41:40.669Z,8.58
2019-05-12T21:44:14.113Z,12.93
2019-05-12T21:46:52.736Z,11.88
2019-05-12T21:49:15.795Z,10.08
2019-05-12T21:51:50.552Z,9.63
2019-05-12T21:54:17.146Z,8.05
2019-05-12T21:56:49.363Z,7.33
2019-05-12T21:59:18.945Z,9.50
2019-05-12T22:01:49.710Z,12.00
2019-05-12T22:04:19.833Z,9.85
2019-05-12T22:06:51.225Z,10.90
2019-05-12T22:09:23.887Z,8.58
2019-05-12T22:11:54.164Z,10.38
2019-05-12T22:14:25.158Z,9.78
2019-05-12T22:16:56.842Z,8.85
2019-05-12T22:19:30.837Z,7.75
2019-05-12T22:22:00.889Z,9.73
2019-05-12T22:24:34.603Z,11.15
2019-05-12T22:27:02.729Z,14.20
2019-05-12T22:29:34.261Z,11.28
2019-05-12T22:32:05.036Z,5.87
2019-05-12T22:34:40.334Z,6.97
2019-05-12T22:37:06.859Z,4.72
2019-05-12T22:39:36.559Z,8.10
2019-05-12T22:42:06.144Z,6.20
2019-05-12T22:44:35.766Z,6.28
2019-05-12T22:47:12.671Z,6.87
2019-05-12T22:49:36.845Z,5.47
2019-05-12T22:52:07.275Z,4.20
2019-05-12T22:54:40.443Z,5.25
2019-05-12T22:57:08.526Z,5.00
2019-05-12T22:59:40.270Z,3.15
2019-05-12T23:02:09.554Z,5.47
2019-05-12T23:04:40.356Z,3.90
2019-05-12T23:07:10.239Z,5.67
2019-05-12T23:09:39.947Z,3.20
2019-05-12T23:12:14.958Z,4.45
2019-05-12T23:14:41.110Z,7.70
2019-05-12T23:17:11.049Z,2.95
2019-05-12T23:19:43.030Z,3.37
2019-05-12T23:22:14.200Z,7.65
2019-05-12T23:24:44.236Z,4.70
2019-05-12T23:27:13.931Z,5.40
2019-05-12T23:29:44.361Z,2.65
2019-05-12T23:32:15.104Z,6.17
2019-05-12T23:34:56.500Z,5.00
2019-05-12T23:37:16.440Z,6.42
2019-05-12T23:39:46.081Z,5.87
2019-05-12T23:42:15.688Z,1.80
2019-05-12T23:44:46.912Z,6.42
2019-05-12T23:47:16.637Z,3.40
2019-05-12T23:49:46.324Z,4.03
2019-05-12T23:52:15.859Z,6.67
2019-05-12T23:54:45.639Z,3.15
2019-05-12T23:57:15.715Z,5.87
2019-05-12T23:59:45.529Z,4.75
